sensor_id;sensor_type;location;lat;lon;timestamp;pressure;altitude;pressure_sealevel;temperature
61703;BMP280;47622;47.726;3.298;2024-03-06T00:01:01;99279.75;;;5.58
61703;BMP280;47622;47.726;3.298;2024-03-06T00:03:27;99283.38;;;5.52
61703;BMP280;47622;47.726;3.298;2024-03-06T00:05:52;99284.44;;;5.61
61703;BMP280;47622;47.726;3.298;2024-03-06T00:08:19;99280.25;;;5.50
61703;BMP280;47622;47.726;3.298;2024-03-06T00:10:44;99281.06;;;5.56
61703;BMP280;47622;47.726;3.298;2024-03-06T00:13:10;99288.56;;;5.52
61703;BMP280;47622;47.726;3.298;2024-03-06T00:15:36;99292.25;;;5.71
61703;BMP280;47622;47.726;3.298;2024-03-06T00:18:01;99280.78;;;5.57
61703;BMP280;47622;47.726;3.298;2024-03-06T00:20:28;99291.19;;;5.57
61703;BMP280;47622;47.726;3.298;2024-03-06T00:22:54;99297.69;;;5.55
61703;BMP280;47622;47.726;3.298;2024-03-06T00:25:19;99300.78;;;5.47
61703;BMP280;47622;47.726;3.298;2024-03-06T00:27:45;99301.06;;;5.50
61703;BMP280;47622;47.726;3.298;2024-03-06T00:30:11;99307.81;;;5.51
61703;BMP280;47622;47.726;3.298;2024-03-06T00:32:36;99301.34;;;5.54
61703;BMP280;47622;47.726;3.298;2024-03-06T00:35:02;99305.75;;;5.58
61703;BMP280;47622;47.726;3.298;2024-03-06T00:37:28;99306.25;;;5.50
61703;BMP280;47622;47.726;3.298;2024-03-06T00:39:54;99298.47;;;5.55
61703;BMP280;47622;47.726;3.298;2024-03-06T00:42:19;99304.41;;;5.46
61703;BMP280;47622;47.726;3.298;2024-03-06T00:44:46;99308.84;;;5.45
61703;BMP280;47622;47.726;3.298;2024-03-06T00:47:12;99314.03;;;5.40
61703;BMP280;47622;47.726;3.298;2024-03-06T00:49:38;99313.78;;;5.47
61703;BMP280;47622;47.726;3.298;2024-03-06T00:52:04;99318.22;;;5.41
61703;BMP280;47622;47.726;3.298;2024-03-06T00:54:30;99315.06;;;5.34
61703;BMP280;47622;47.726;3.298;2024-03-06T00:56:56;99309.84;;;5.29
61703;BMP280;47622;47.726;3.298;2024-03-06T00:59:22;99312.94;;;5.21
61703;BMP280;47622;47.726;3.298;2024-03-06T01:01:48;99307.97;;;5.14
61703;BMP280;47622;47.726;3.298;2024-03-06T01:04:14;99312.91;;;5.10
61703;BMP280;47622;47.726;3.298;2024-03-06T01:06:39;99311.88;;;5.11
61703;BMP280;47622;47.726;3.298;2024-03-06T01:09:05;99310.28;;;5.05
61703;BMP280;47622;47.726;3.298;2024-03-06T01:11:31;99306.94;;;5.10
61703;BMP280;47622;47.726;3.298;2024-03-06T01:13:56;99308.75;;;5.14
61703;BMP280;47622;47.726;3.298;2024-03-06T01:16:22;99311.84;;;5.01
61703;BMP280;47622;47.726;3.298;2024-03-06T01:18:47;99315.97;;;4.97
61703;BMP280;47622;47.726;3.298;2024-03-06T01:21:13;99309.22;;;4.91
61703;BMP280;47622;47.726;3.298;2024-03-06T01:23:38;99322.19;;;4.96
61703;BMP280;47622;47.726;3.298;2024-03-06T01:26:04;99305.84;;;4.96
61703;BMP280;47622;47.726;3.298;2024-03-06T01:28:29;99297.25;;;5.00
61703;BMP280;47622;47.726;3.298;2024-03-06T01:30:55;99306.09;;;4.99
61703;BMP280;47622;47.726;3.298;2024-03-06T01:33:21;99304.25;;;4.95
61703;BMP280;47622;47.726;3.298;2024-03-06T01:35:47;99297.75;;;4.87
61703;BMP280;47622;47.726;3.298;2024-03-06T01:38:12;99301.38;;;4.86
61703;BMP280;47622;47.726;3.298;2024-03-06T01:40:43;99302.72;;;4.94
61703;BMP280;47622;47.726;3.298;2024-03-06T01:43:20;99307.13;;;4.98
61703;BMP280;47622;47.726;3.298;2024-03-06T01:45:48;99302.97;;;4.97
61703;BMP280;47622;47.726;3.298;2024-03-06T01:48:13;99292.88;;;5.01
61703;BMP280;47622;47.726;3.298;2024-03-06T01:50:41;99303.53;;;5.04
61703;BMP280;47622;47.726;3.298;2024-03-06T01:53:07;99302.72;;;4.94
61703;BMP280;47622;47.726;3.298;2024-03-06T01:55:33;99311.81;;;4.96
61703;BMP280;47622;47.726;3.298;2024-03-06T01:57:59;99314.41;;;4.96
61703;BMP280;47622;47.726;3.298;2024-03-06T02:00:25;99312.03;;;4.95
61703;BMP280;47622;47.726;3.298;2024-03-06T02:02:51;99324.31;;;5.04
61703;BMP280;47622;47.726;3.298;2024-03-06T02:05:17;99317.06;;;5.06
61703;BMP280;47622;47.726;3.298;2024-03-06T02:07:44;99330.06;;;5.11
61703;BMP280;47622;47.726;3.298;2024-03-06T02:10:10;99321.75;;;5.09
61703;BMP280;47622;47.726;3.298;2024-03-06T02:12:37;99325.38;;;5.13
61703;BMP280;47622;47.726;3.298;2024-03-06T02:15:03;99321.00;;;5.19
61703;BMP280;47622;47.726;3.298;2024-03-06T02:17:29;99315.25;;;5.12
61703;BMP280;47622;47.726;3.298;2024-03-06T02:19:55;99307.75;;;5.21
61703;BMP280;47622;47.726;3.298;2024-03-06T02:22:23;99308.31;;;5.28
61703;BMP280;47622;47.726;3.298;2024-03-06T02:24:49;99308.78;;;5.30
61703;BMP280;47622;47.726;3.298;2024-03-06T02:27:15;99316.13;;;5.28
61703;BMP280;47622;47.726;3.298;2024-03-06T02:29:42;99313.75;;;5.26
61703;BMP280;47622;47.726;3.298;2024-03-06T02:32:09;99308.31;;;5.28
61703;BMP280;47622;47.726;3.298;2024-03-06T02:34:34;99314.00;;;5.30
61703;BMP280;47622;47.726;3.298;2024-03-06T02:37:00;99321.03;;;5.29
61703;BMP280;47622;47.726;3.298;2024-03-06T02:39:26;99312.69;;;5.17
61703;BMP280;47622;47.726;3.298;2024-03-06T02:41:51;99312.38;;;5.13
61703;BMP280;47622;47.726;3.298;2024-03-06T02:44:17;99305.13;;;5.15
61703;BMP280;47622;47.726;3.298;2024-03-06T02:46:49;99314.53;;;5.22
61703;BMP280;47622;47.726;3.298;2024-03-06T02:49:18;99309.31;;;5.22
61703;BMP280;47622;47.726;3.298;2024-03-06T02:51:44;99320.69;;;5.15
61703;BMP280;47622;47.726;3.298;2024-03-06T02:54:10;99321.00;;;5.19
61703;BMP280;47622;47.726;3.298;2024-03-06T02:56:36;99313.97;;;5.20
61703;BMP280;47622;47.726;3.298;2024-03-06T02:59:01;99312.69;;;5.17
61703;BMP280;47622;47.726;3.298;2024-03-06T03:01:29;99312.16;;;5.20
61703;BMP280;47622;47.726;3.298;2024-03-06T03:03:55;99309.03;;;5.18
61703;BMP280;47622;47.726;3.298;2024-03-06T03:06:21;99309.28;;;5.11
61703;BMP280;47622;47.726;3.298;2024-03-06T03:08:49;99311.34;;;5.09
61703;BMP280;47622;47.726;3.298;2024-03-06T03:11:15;99305.09;;;5.05
61703;BMP280;47622;47.726;3.298;2024-03-06T03:13:42;99301.41;;;4.96
61703;BMP280;47622;47.726;3.298;2024-03-06T03:16:18;99295.66;;;4.89
61703;BMP280;47622;47.726;3.298;2024-03-06T03:18:45;99297.75;;;4.87
61703;BMP280;47622;47.726;3.298;2024-03-06T03:21:12;99301.38;;;4.86
61703;BMP280;47622;47.726;3.298;2024-03-06T03:23:38;99295.13;;;4.82
61703;BMP280;47622;47.726;3.298;2024-03-06T03:26:05;99293.03;;;4.74
61703;BMP280;47622;47.726;3.298;2024-03-06T03:28:31;99295.59;;;4.69
61703;BMP280;47622;47.726;3.298;2024-03-06T03:30:58;99296.06;;;4.66
61703;BMP280;47622;47.726;3.298;2024-03-06T03:33:24;99288.78;;;4.63
61703;BMP280;47622;47.726;3.298;2024-03-06T03:35:50;99287.22;;;4.56
61703;BMP280;47622;47.726;3.298;2024-03-06T03:38:15;99292.91;;;4.53
61703;BMP280;47622;47.726;3.298;2024-03-06T03:40:42;99292.13;;;4.58
61703;BMP280;47622;47.726;3.298;2024-03-06T03:43:08;99289.53;;;4.58
61703;BMP280;47622;47.726;3.298;2024-03-06T03:45:34;99287.97;;;4.57
61703;BMP280;47622;47.726;3.298;2024-03-06T03:48:04;99290.84;;;4.55
61703;BMP280;47622;47.726;3.298;2024-03-06T03:50:30;99293.44;;;4.60
61703;BMP280;47622;47.726;3.298;2024-03-06T03:52:57;99288.72;;;4.52
61703;BMP280;47622;47.726;3.298;2024-03-06T03:55:25;99279.13;;;4.48
61703;BMP280;47622;47.726;3.298;2024-03-06T03:57:51;99278.81;;;4.44
61703;BMP280;47622;47.726;3.298;2024-03-06T04:00:18;99287.16;;;4.51
61703;BMP280;47622;47.726;3.298;2024-03-06T04:02:43;99289.25;;;4.49
61703;BMP280;47622;47.726;3.298;2024-03-06T04:05:09;99296.50;;;4.52
61703;BMP280;47622;47.726;3.298;2024-03-06T04:07:36;99292.13;;;4.58
61703;BMP280;47622;47.726;3.298;2024-03-06T04:10:03;99298.38;;;4.62
61703;BMP280;47622;47.726;3.298;2024-03-06T04:12:29;99301.22;;;4.55
61703;BMP280;47622;47.726;3.298;2024-03-06T04:14:55;99299.66;;;4.59
61703;BMP280;47622;47.726;3.298;2024-03-06T04:17:20;99302.88;;;4.72
61703;BMP280;47622;47.726;3.298;2024-03-06T04:19:46;99294.63;;;4.85
61703;BMP280;47622;47.726;3.298;2024-03-06T04:22:18;99305.53;;;4.87
61703;BMP280;47622;47.726;3.298;2024-03-06T04:24:43;99301.88;;;4.83
61703;BMP280;47622;47.726;3.298;2024-03-06T04:27:10;99306.81;;;4.79
61703;BMP280;47622;47.726;3.298;2024-03-06T04:29:35;99313.78;;;4.79
61703;BMP280;47622;47.726;3.298;2024-03-06T04:32:01;99314.81;;;4.78
61703;BMP280;47622;47.726;3.298;2024-03-06T04:34:27;99318.50;;;4.82
61703;BMP280;47622;47.726;3.298;2024-03-06T04:36:52;99324.00;;;4.91
61703;BMP280;47622;47.726;3.298;2024-03-06T04:39:18;99310.47;;;4.88
61703;BMP280;47622;47.726;3.298;2024-03-06T04:41:43;99322.72;;;4.93
61703;BMP280;47622;47.726;3.298;2024-03-06T04:44:09;99331.25;;;4.88
61703;BMP280;47622;47.726;3.298;2024-03-06T04:46:34;99331.03;;;4.90
61703;BMP280;47622;47.726;3.298;2024-03-06T04:49:00;99322.16;;;4.86
61703;BMP280;47622;47.726;3.298;2024-03-06T04:51:27;99326.28;;;4.82
61703;BMP280;47622;47.726;3.298;2024-03-06T04:53:53;99317.97;;;4.80
61703;BMP280;47622;47.726;3.298;2024-03-06T04:56:18;99327.84;;;4.83
61703;BMP280;47622;47.726;3.298;2024-03-06T04:58:46;99333.81;;;4.83
61703;BMP280;47622;47.726;3.298;2024-03-06T05:01:12;99332.59;;;4.91
61703;BMP280;47622;47.726;3.298;2024-03-06T05:03:39;99341.94;;;4.92
61703;BMP280;47622;47.726;3.298;2024-03-06T05:06:05;99333.63;;;4.90
61703;BMP280;47622;47.726;3.298;2024-03-06T05:08:31;99335.41;;;4.84
61703;BMP280;47622;47.726;3.298;2024-03-06T05:11:00;99336.38;;;4.78
61703;BMP280;47622;47.726;3.298;2024-03-06T05:13:25;99327.31;;;4.76
61703;BMP280;47622;47.726;3.298;2024-03-06T05:15:51;99343.38;;;4.78
61703;BMP280;47622;47.726;3.298;2024-03-06T05:18:17;99339.75;;;4.79
61703;BMP280;47622;47.726;3.298;2024-03-06T05:20:42;99344.72;;;4.80
61703;BMP280;47622;47.726;3.298;2024-03-06T05:23:08;99342.16;;;4.85
61703;BMP280;47622;47.726;3.298;2024-03-06T05:25:34;99339.78;;;4.84
61703;BMP280;47622;47.726;3.298;2024-03-06T05:28:00;99341.88;;;4.82
61703;BMP280;47622;47.726;3.298;2024-03-06T05:30:25;99347.81;;;4.77
61703;BMP280;47622;47.726;3.298;2024-03-06T05:32:51;99334.31;;;4.75
61703;BMP280;47622;47.726;3.298;2024-03-06T05:35:17;99342.13;;;4.80
61703;BMP280;47622;47.726;3.298;2024-03-06T05:37:43;99341.38;;;4.85
61703;BMP280;47622;47.726;3.298;2024-03-06T05:40:09;99347.31;;;4.75
61703;BMP280;47622;47.726;3.298;2024-03-06T05:42:35;99347.56;;;4.74
61703;BMP280;47622;47.726;3.298;2024-03-06T05:45:01;99345.97;;;4.78
61703;BMP280;47622;47.726;3.298;2024-03-06T05:47:32;99344.41;;;4.77
61703;BMP280;47622;47.726;3.298;2024-03-06T05:49:57;99353.81;;;4.83
61703;BMP280;47622;47.726;3.298;2024-03-06T05:52:23;99348.63;;;4.83
61703;BMP280;47622;47.726;3.298;2024-03-06T05:54:49;99342.66;;;4.82
61703;BMP280;47622;47.726;3.298;2024-03-06T05:57:16;99352.84;;;4.99
61703;BMP280;47622;47.726;3.298;2024-03-06T05:59:41;99359.34;;;4.97
61703;BMP280;47622;47.726;3.298;2024-03-06T06:02:07;99351.19;;;4.78
61703;BMP280;47622;47.726;3.298;2024-03-06T06:04:32;99360.13;;;4.97
61703;BMP280;47622;47.726;3.298;2024-03-06T06:06:58;99360.66;;;4.94
61703;BMP280;47622;47.726;3.298;2024-03-06T06:09:25;99373.66;;;4.99
61703;BMP280;47622;47.726;3.298;2024-03-06T06:11:51;99380.88;;;4.87
61703;BMP280;47622;47.726;3.298;2024-03-06T06:14:16;99374.88;;;4.86
61703;BMP280;47622;47.726;3.298;2024-03-06T06:16:42;99373.81;;;4.82
61703;BMP280;47622;47.726;3.298;2024-03-06T06:19:08;99379.88;;;4.93
61703;BMP280;47622;47.726;3.298;2024-03-06T06:21:34;99386.63;;;4.94
61703;BMP280;47622;47.726;3.298;2024-03-06T06:24:01;99387.16;;;4.96
61703;BMP280;47622;47.726;3.298;2024-03-06T06:26:29;99390.25;;;4.93
61703;BMP280;47622;47.726;3.298;2024-03-06T06:28:56;99392.88;;;4.98
61703;BMP280;47622;47.726;3.298;2024-03-06T06:31:23;99402.25;;;5.04
61703;BMP280;47622;47.726;3.298;2024-03-06T06:33:50;99400.41;;;5.00
61703;BMP280;47622;47.726;3.298;2024-03-06T06:36:17;99407.72;;;5.03
61703;BMP280;47622;47.726;3.298;2024-03-06T06:38:43;99394.22;;;5.06
61703;BMP280;47622;47.726;3.298;2024-03-06T06:41:10;99408.28;;;5.15
61703;BMP280;47622;47.726;3.298;2024-03-06T06:43:37;99406.97;;;5.12
61703;BMP280;47622;47.726;3.298;2024-03-06T06:46:03;99404.38;;;5.12
61703;BMP280;47622;47.726;3.298;2024-03-06T06:48:31;99418.66;;;5.15
61703;BMP280;47622;47.726;3.298;2024-03-06T06:51:02;99417.19;;;5.24
61703;BMP280;47622;47.726;3.298;2024-03-06T06:53:29;99415.09;;;5.26
61703;BMP280;47622;47.726;3.298;2024-03-06T06:55:55;99412.00;;;5.24
61703;BMP280;47622;47.726;3.298;2024-03-06T06:58:20;99425.72;;;5.20
61703;BMP280;47622;47.726;3.298;2024-03-06T07:00:46;99423.09;;;5.14
61703;BMP280;47622;47.726;3.298;2024-03-06T07:03:12;99424.66;;;5.15
61703;BMP280;47622;47.726;3.298;2024-03-06T07:05:37;99428.88;;;5.22
61703;BMP280;47622;47.726;3.298;2024-03-06T07:08:04;99432.50;;;5.21
61703;BMP280;47622;47.726;3.298;2024-03-06T07:10:30;99437.66;;;5.15
61703;BMP280;47622;47.726;3.298;2024-03-06T07:12:55;99434.56;;;5.19
61703;BMP280;47622;47.726;3.298;2024-03-06T07:15:21;99439.47;;;5.15
61703;BMP280;47622;47.726;3.298;2024-03-06T07:17:47;99447.03;;;5.17
61703;BMP280;47622;47.726;3.298;2024-03-06T07:20:13;99450.16;;;5.19
61703;BMP280;47622;47.726;3.298;2024-03-06T07:22:39;99448.03;;;5.15
61703;BMP280;47622;47.726;3.298;2024-03-06T07:25:05;99442.88;;;5.21
61703;BMP280;47622;47.726;3.298;2024-03-06T07:27:31;99453.31;;;5.31
61703;BMP280;47622;47.726;3.298;2024-03-06T07:29:59;99450.19;;;5.29
61703;BMP280;47622;47.726;3.298;2024-03-06T07:32:25;99461.38;;;5.29
61703;BMP280;47622;47.726;3.298;2024-03-06T07:34:51;99460.59;;;5.29
61703;BMP280;47622;47.726;3.298;2024-03-06T07:37:16;99454.09;;;5.26
61703;BMP280;47622;47.726;3.298;2024-03-06T07:39:42;99458.53;;;5.31
61703;BMP280;47622;47.726;3.298;2024-03-06T07:42:07;99459.56;;;5.30
61703;BMP280;47622;47.726;3.298;2024-03-06T07:44:33;99455.41;;;5.29
61703;BMP280;47622;47.726;3.298;2024-03-06T07:47:00;99455.97;;;5.36
61703;BMP280;47622;47.726;3.298;2024-03-06T07:49:26;99463.31;;;5.44
61703;BMP280;47622;47.726;3.298;2024-03-06T07:51:51;99456.00;;;5.46
61703;BMP280;47622;47.726;3.298;2024-03-06T07:54:17;99464.31;;;5.38
61703;BMP280;47622;47.726;3.298;2024-03-06T07:56:43;99463.31;;;5.44
61703;BMP280;47622;47.726;3.298;2024-03-06T07:59:08;99461.19;;;5.41
61703;BMP280;47622;47.726;3.298;2024-03-06T08:01:34;99465.88;;;5.39
61703;BMP280;47622;47.726;3.298;2024-03-06T08:04:00;99466.41;;;5.46
61703;BMP280;47622;47.726;3.298;2024-03-06T08:06:25;99469.78;;;5.41
61703;BMP280;47622;47.726;3.298;2024-03-06T08:08:52;99478.63;;;5.46
61703;BMP280;47622;47.726;3.298;2024-03-06T08:11:17;99480.47;;;5.50
61703;BMP280;47622;47.726;3.298;2024-03-06T08:13:43;99480.50;;;5.55
61703;BMP280;47622;47.726;3.298;2024-03-06T08:16:08;99486.50;;;5.56
61703;BMP280;47622;47.726;3.298;2024-03-06T08:18:35;99499.75;;;5.54
61703;BMP280;47622;47.726;3.298;2024-03-06T08:21:01;99494.59;;;5.64
61703;BMP280;47622;47.726;3.298;2024-03-06T08:23:28;99492.00;;;5.69
61703;BMP280;47622;47.726;3.298;2024-03-06T08:25:54;99500.34;;;5.71
61703;BMP280;47622;47.726;3.298;2024-03-06T08:28:20;99496.44;;;5.79
61703;BMP280;47622;47.726;3.298;2024-03-06T08:30:46;99502.72;;;5.83
61703;BMP280;47622;47.726;3.298;2024-03-06T08:33:11;99499.88;;;5.95
61703;BMP280;47622;47.726;3.298;2024-03-06T08:35:37;99497.84;;;5.97
61703;BMP280;47622;47.726;3.298;2024-03-06T08:38:03;99508.25;;;5.97
61703;BMP280;47622;47.726;3.298;2024-03-06T08:40:29;99511.88;;;5.96
61703;BMP280;47622;47.726;3.298;2024-03-06T08:42:55;99499.38;;;5.88
61703;BMP280;47622;47.726;3.298;2024-03-06T08:45:21;99509.03;;;5.97
61703;BMP280;47622;47.726;3.298;2024-03-06T08:47:47;99512.69;;;6.12
61703;BMP280;47622;47.726;3.298;2024-03-06T08:50:14;99516.38;;;6.16
61703;BMP280;47622;47.726;3.298;2024-03-06T08:52:39;99512.47;;;6.23
61703;BMP280;47622;47.726;3.298;2024-03-06T08:55:07;99517.94;;;6.27
61703;BMP280;47622;47.726;3.298;2024-03-06T08:57:36;99527.09;;;6.30
61703;BMP280;47622;47.726;3.298;2024-03-06T09:00:03;99521.59;;;6.36
61703;BMP280;47622;47.726;3.298;2024-03-06T09:02:29;99531.22;;;6.25
61703;BMP280;47622;47.726;3.298;2024-03-06T09:04:55;99525.53;;;6.39
61703;BMP280;47622;47.726;3.298;2024-03-06T09:07:20;99536.97;;;6.43
61703;BMP280;47622;47.726;3.298;2024-03-06T09:09:49;99533.88;;;6.46
61703;BMP280;47622;47.726;3.298;2024-03-06T09:12:15;99531.53;;;6.60
61703;BMP280;47622;47.726;3.298;2024-03-06T09:14:41;99537.03;;;6.68
61703;BMP280;47622;47.726;3.298;2024-03-06T09:17:07;99531.28;;;6.66
61703;BMP280;47622;47.726;3.298;2024-03-06T09:19:36;99533.13;;;6.66
61703;BMP280;47622;47.726;3.298;2024-03-06T09:22:01;99535.47;;;6.88
61703;BMP280;47622;47.726;3.298;2024-03-06T09:24:28;99542.22;;;7.14
61703;BMP280;47622;47.726;3.298;2024-03-06T09:26:54;99541.38;;;7.44
61703;BMP280;47622;47.726;3.298;2024-03-06T09:29:20;99538.88;;;7.83
61703;BMP280;47622;47.726;3.298;2024-03-06T09:31:47;99542.47;;;7.97
61703;BMP280;47622;47.726;3.298;2024-03-06T09:34:14;99532.44;;;8.20
61703;BMP280;47622;47.726;3.298;2024-03-06T09:36:41;99542.13;;;8.53
61703;BMP280;47622;47.726;3.298;2024-03-06T09:39:14;99538.00;;;8.47
61703;BMP280;47622;47.726;3.298;2024-03-06T09:41:46;99542.88;;;8.59
61703;BMP280;47622;47.726;3.298;2024-03-06T09:44:13;99531.97;;;8.81
61703;BMP280;47622;47.726;3.298;2024-03-06T09:46:48;99542.34;;;8.91
61703;BMP280;47622;47.726;3.298;2024-03-06T09:49:16;99538.47;;;8.88
61703;BMP280;47622;47.726;3.298;2024-03-06T09:51:47;99537.56;;;8.98
61703;BMP280;47622;47.726;3.298;2024-03-06T09:54:15;99538.16;;;8.61
61703;BMP280;47622;47.726;3.298;2024-03-06T09:56:43;99545.16;;;8.66
61703;BMP280;47622;47.726;3.298;2024-03-06T09:59:09;99538.84;;;8.72
61703;BMP280;47622;47.726;3.298;2024-03-06T10:01:49;99545.75;;;8.63
61703;BMP280;47622;47.726;3.298;2024-03-06T10:04:26;99546.72;;;8.67
61703;BMP280;47622;47.726;3.298;2024-03-06T10:06:57;99540.94;;;8.75
61703;BMP280;47622;47.726;3.298;2024-03-06T10:09:24;99550.13;;;8.96
61703;BMP280;47622;47.726;3.298;2024-03-06T10:11:51;99555.09;;;8.69
61703;BMP280;47622;47.726;3.298;2024-03-06T10:14:22;99546.47;;;8.97
61703;BMP280;47622;47.726;3.298;2024-03-06T10:16:58;99543.94;;;8.87
61703;BMP280;47622;47.726;3.298;2024-03-06T10:19:26;99542.78;;;8.74
61703;BMP280;47622;47.726;3.298;2024-03-06T10:21:53;99545.50;;;8.88
61703;BMP280;47622;47.726;3.298;2024-03-06T10:24:23;99550.78;;;9.12
61703;BMP280;47622;47.726;3.298;2024-03-06T10:26:51;99555.56;;;9.29
61703;BMP280;47622;47.726;3.298;2024-03-06T10:29:19;99559.16;;;9.09
61703;BMP280;47622;47.726;3.298;2024-03-06T10:31:52;99554.16;;;8.54
61703;BMP280;47622;47.726;3.298;2024-03-06T10:34:21;99548.03;;;8.30
61703;BMP280;47622;47.726;3.298;2024-03-06T10:37:01;99556.41;;;8.27
61703;BMP280;47622;47.726;3.298;2024-03-06T10:39:27;99558.94;;;9.05
61703;BMP280;47622;47.726;3.298;2024-03-06T10:41:55;99563.44;;;9.53
61703;BMP280;47622;47.726;3.298;2024-03-06T10:44:25;99561.09;;;9.51
61703;BMP280;47622;47.726;3.298;2024-03-06T10:47:01;99565.97;;;9.34
61703;BMP280;47622;47.726;3.298;2024-03-06T10:49:28;99561.97;;;9.65
61703;BMP280;47622;47.726;3.298;2024-03-06T10:52:01;99562.41;;;9.72
61703;BMP280;47622;47.726;3.298;2024-03-06T10:54:28;99556.69;;;9.89
61703;BMP280;47622;47.726;3.298;2024-03-06T10:56:55;99566.03;;;9.76
61703;BMP280;47622;47.726;3.298;2024-03-06T10:59:24;99563.19;;;9.25
61703;BMP280;47622;47.726;3.298;2024-03-06T11:01:54;99566.59;;;8.97
61703;BMP280;47622;47.726;3.298;2024-03-06T11:04:24;99561.16;;;8.93
61703;BMP280;47622;47.726;3.298;2024-03-06T11:06:50;99569.03;;;8.88
61703;BMP280;47622;47.726;3.298;2024-03-06T11:09:16;99562.63;;;9.04
61703;BMP280;47622;47.726;3.298;2024-03-06T11:11:52;99568.91;;;9.32
61703;BMP280;47622;47.726;3.298;2024-03-06T11:14:18;99568.41;;;9.01
61703;BMP280;47622;47.726;3.298;2024-03-06T11:17:02;99579.22;;;9.18
61703;BMP280;47622;47.726;3.298;2024-03-06T11:20:07;99586.44;;;9.32
61703;BMP280;47622;47.726;3.298;2024-03-06T11:22:18;99583.94;;;9.22
61703;BMP280;47622;47.726;3.298;2024-03-06T11:24:44;99586.34;;;8.84
61703;BMP280;47622;47.726;3.298;2024-03-06T11:27:10;99588.00;;;9.04
61703;BMP280;47622;47.726;3.298;2024-03-06T11:30:08;99592.28;;;8.55
61703;BMP280;47622;47.726;3.298;2024-03-06T11:33:01;99595.69;;;8.12
61703;BMP280;47622;47.726;3.298;2024-03-06T11:35:29;99594.63;;;8.08
61703;BMP280;47622;47.726;3.298;2024-03-06T11:37:55;99586.84;;;8.03
61703;BMP280;47622;47.726;3.298;2024-03-06T11:40:24;99589.88;;;8.25
61703;BMP280;47622;47.726;3.298;2024-03-06T11:42:50;99597.25;;;8.08
61703;BMP280;47622;47.726;3.298;2024-03-06T11:45:16;99592.75;;;8.18
61703;BMP280;47622;47.726;3.298;2024-03-06T11:47:56;99596.59;;;8.36
61703;BMP280;47622;47.726;3.298;2024-03-06T11:50:24;99586.50;;;8.64
61703;BMP280;47622;47.726;3.298;2024-03-06T11:52:51;99587.69;;;9.10
61703;BMP280;47622;47.726;3.298;2024-03-06T11:55:17;99588.47;;;9.35
61703;BMP280;47622;47.726;3.298;2024-03-06T11:57:42;99589.59;;;9.76
61703;BMP280;47622;47.726;3.298;2024-03-06T12:00:08;99586.56;;;9.88
61703;BMP280;47622;47.726;3.298;2024-03-06T12:02:36;99582.69;;;10.23
61703;BMP280;47622;47.726;3.298;2024-03-06T12:05:02;99576.09;;;10.26
61703;BMP280;47622;47.726;3.298;2024-03-06T12:07:28;99582.97;;;10.03
61703;BMP280;47622;47.726;3.298;2024-03-06T12:09:54;99587.22;;;9.99
61703;BMP280;47622;47.726;3.298;2024-03-06T12:12:19;99578.03;;;10.01
61703;BMP280;47622;47.726;3.298;2024-03-06T12:14:57;99583.97;;;10.07
61703;BMP280;47622;47.726;3.298;2024-03-06T12:17:23;99579.88;;;10.01
61703;BMP280;47622;47.726;3.298;2024-03-06T12:19:49;99579.81;;;9.63
61703;BMP280;47622;47.726;3.298;2024-03-06T12:22:14;99579.03;;;9.39
61703;BMP280;47622;47.726;3.298;2024-03-06T12:24:40;99573.94;;;9.71
61703;BMP280;47622;47.726;3.298;2024-03-06T12:27:07;99572.72;;;10.06
61703;BMP280;47622;47.726;3.298;2024-03-06T12:29:34;99571.28;;;10.14
61703;BMP280;47622;47.726;3.298;2024-03-06T12:32:04;99581.63;;;10.43
61703;BMP280;47622;47.726;3.298;2024-03-06T12:34:30;99578.97;;;10.62
61703;BMP280;47622;47.726;3.298;2024-03-06T12:36:55;99581.78;;;10.33
61703;BMP280;47622;47.726;3.298;2024-03-06T12:39:23;99579.28;;;10.42
61703;BMP280;47622;47.726;3.298;2024-03-06T12:41:52;99575.38;;;10.39
61703;BMP280;47622;47.726;3.298;2024-03-06T12:44:22;99580.31;;;9.84
61703;BMP280;47622;47.726;3.298;2024-03-06T12:46:47;99580.13;;;9.81
61703;BMP280;47622;47.726;3.298;2024-03-06T12:49:14;99579.13;;;9.76
61703;BMP280;47622;47.726;3.298;2024-03-06T12:51:40;99570.44;;;9.57
61703;BMP280;47622;47.726;3.298;2024-03-06T12:54:05;99580.19;;;9.75
61703;BMP280;47622;47.726;3.298;2024-03-06T12:56:32;99584.25;;;9.87
61703;BMP280;47622;47.726;3.298;2024-03-06T12:58:58;99578.34;;;9.76
61703;BMP280;47622;47.726;3.298;2024-03-06T13:01:23;99573.97;;;9.90
61703;BMP280;47622;47.726;3.298;2024-03-06T13:03:49;99567.88;;;10.14
61703;BMP280;47622;47.726;3.298;2024-03-06T13:06:15;99575.41;;;10.20
61703;BMP280;47622;47.726;3.298;2024-03-06T13:08:40;99575.97;;;10.17
61703;BMP280;47622;47.726;3.298;2024-03-06T13:11:06;99574.16;;;10.31
61703;BMP280;47622;47.726;3.298;2024-03-06T13:13:32;99575.50;;;10.48
61703;BMP280;47622;47.726;3.298;2024-03-06T13:16:00;99569.16;;;10.35
61703;BMP280;47622;47.726;3.298;2024-03-06T13:18:25;99563.53;;;10.42
61703;BMP280;47622;47.726;3.298;2024-03-06T13:20:51;99564.22;;;10.66
61703;BMP280;47622;47.726;3.298;2024-03-06T13:23:17;99571.75;;;10.86
61703;BMP280;47622;47.726;3.298;2024-03-06T13:25:43;99563.69;;;10.96
61703;BMP280;47622;47.726;3.298;2024-03-06T13:28:09;99563.69;;;10.96
61703;BMP280;47622;47.726;3.298;2024-03-06T13:30:34;99564.59;;;10.59
61703;BMP280;47622;47.726;3.298;2024-03-06T13:33:01;99562.31;;;10.20
61703;BMP280;47622;47.726;3.298;2024-03-06T13:35:26;99553.44;;;9.97
61703;BMP280;47622;47.726;3.298;2024-03-06T13:37:52;99554.78;;;10.32
61703;BMP280;47622;47.726;3.298;2024-03-06T13:40:19;99566.69;;;10.44
61703;BMP280;47622;47.726;3.298;2024-03-06T13:42:45;99566.91;;;10.28
61703;BMP280;47622;47.726;3.298;2024-03-06T13:45:11;99567.22;;;9.65
61703;BMP280;47622;47.726;3.298;2024-03-06T13:47:38;99566.38;;;9.89
61703;BMP280;47622;47.726;3.298;2024-03-06T13:50:07;99562.09;;;9.55
61703;BMP280;47622;47.726;3.298;2024-03-06T13:52:33;99560.53;;;9.54
61703;BMP280;47622;47.726;3.298;2024-03-06T13:54:59;99554.50;;;9.77
61703;BMP280;47622;47.726;3.298;2024-03-06T13:57:28;99554.00;;;9.94
61703;BMP280;47622;47.726;3.298;2024-03-06T13:59:54;99555.13;;;9.88
61703;BMP280;47622;47.726;3.298;2024-03-06T14:02:20;99564.78;;;10.12
61703;BMP280;47622;47.726;3.298;2024-03-06T14:04:46;99556.47;;;10.23
61703;BMP280;47622;47.726;3.298;2024-03-06T14:07:11;99561.22;;;10.21
61703;BMP280;47622;47.726;3.298;2024-03-06T14:09:37;99562.03;;;10.03
61703;BMP280;47622;47.726;3.298;2024-03-06T14:12:03;99561.31;;;10.16
61703;BMP280;47622;47.726;3.298;2024-03-06T14:14:29;99561.22;;;10.40
61703;BMP280;47622;47.726;3.298;2024-03-06T14:16:55;99553.88;;;10.56